sensor_id;sensor_type;location;lat;lon;timestamp;temperature;humidity
59857;DHT22;45733;52.668;6.860;2022-08-25T00:00:45;21.60;99.90
59857;DHT22;45733;52.668;6.860;2022-08-25T00:03:12;21.70;99.90
59857;DHT22;45733;52.668;6.860;2022-08-25T00:05:38;21.70;99.90
59857;DHT22;45733;52.668;6.860;2022-08-25T00:08:04;21.50;99.90
59857;DHT22;45733;52.668;6.860;2022-08-25T00:10:33;21.40;99.90
59857;DHT22;45733;52.668;6.860;2022-08-25T00:12:59;21.30;99.90
59857;DHT22;45733;52.668;6.860;2022-08-25T00:15:26;21.20;99.90
59857;DHT22;45733;52.668;6.860;2022-08-25T00:17:51;21.20;99.90
59857;DHT22;45733;52.668;6.860;2022-08-25T00:20:17;21.20;99.90
59857;DHT22;45733;52.668;6.860;2022-08-25T00:22:43;21.20;99.90
59857;DHT22;45733;52.668;6.860;2022-08-25T00:25:09;21.20;99.90
59857;DHT22;45733;52.668;6.860;2022-08-25T00:27:35;21.10;99.90
59857;DHT22;45733;52.668;6.860;2022-08-25T00:30:02;21.10;99.90
59857;DHT22;45733;52.668;6.860;2022-08-25T00:32:28;21.10;99.90
59857;DHT22;45733;52.668;6.860;2022-08-25T00:34:54;21.00;99.90
59857;DHT22;45733;52.668;6.860;2022-08-25T00:37:20;21.00;99.90
59857;DHT22;45733;52.668;6.860;2022-08-25T00:39:45;21.00;99.90
59857;DHT22;45733;52.668;6.860;2022-08-25T00:42:11;21.10;99.90
59857;DHT22;45733;52.668;6.860;2022-08-25T00:44:37;21.00;99.90
59857;DHT22;45733;52.668;6.860;2022-08-25T00:47:04;20.90;99.90
59857;DHT22;45733;52.668;6.860;2022-08-25T00:52:09;20.80;99.90
59857;DHT22;45733;52.668;6.860;2022-08-25T00:54:51;20.70;99.90
59857;DHT22;45733;52.668;6.860;2022-08-25T00:57:22;20.70;99.90
59857;DHT22;45733;52.668;6.860;2022-08-25T00:59:49;20.80;99.90
59857;DHT22;45733;52.668;6.860;2022-08-25T01:02:15;20.80;99.90
59857;DHT22;45733;52.668;6.860;2022-08-25T01:04:44;20.70;99.90
59857;DHT22;45733;52.668;6.860;2022-08-25T01:07:11;20.90;99.90
59857;DHT22;45733;52.668;6.860;2022-08-25T01:09:38;20.70;99.90
59857;DHT22;45733;52.668;6.860;2022-08-25T01:12:04;20.70;99.90
59857;DHT22;45733;52.668;6.860;2022-08-25T01:14:31;20.50;99.90
59857;DHT22;45733;52.668;6.860;2022-08-25T01:16:58;20.50;99.90
59857;DHT22;45733;52.668;6.860;2022-08-25T01:19:26;20.50;99.90
59857;DHT22;45733;52.668;6.860;2022-08-25T01:21:52;20.50;99.90
59857;DHT22;45733;52.668;6.860;2022-08-25T01:27:37;20.40;99.90
59857;DHT22;45733;52.668;6.860;2022-08-25T01:30:03;20.40;99.90
59857;DHT22;45733;52.668;6.860;2022-08-25T01:32:33;20.30;99.90
59857;DHT22;45733;52.668;6.860;2022-08-25T01:34:59;20.40;99.90
59857;DHT22;45733;52.668;6.860;2022-08-25T01:37:25;20.30;99.90
59857;DHT22;45733;52.668;6.860;2022-08-25T01:39:51;20.20;99.90
59857;DHT22;45733;52.668;6.860;2022-08-25T01:42:32;20.10;99.90
59857;DHT22;45733;52.668;6.860;2022-08-25T01:45:03;20.20;99.90
59857;DHT22;45733;52.668;6.860;2022-08-25T01:47:29;20.20;99.90
59857;DHT22;45733;52.668;6.860;2022-08-25T01:49:56;20.10;99.90
59857;DHT22;45733;52.668;6.860;2022-08-25T01:52:32;20.10;99.90
59857;DHT22;45733;52.668;6.860;2022-08-25T01:54:58;20.20;99.90
59857;DHT22;45733;52.668;6.860;2022-08-25T01:57:24;20.10;99.90
59857;DHT22;45733;52.668;6.860;2022-08-25T01:59:50;20.20;99.90
59857;DHT22;45733;52.668;6.860;2022-08-25T02:02:16;20.10;99.90
59857;DHT22;45733;52.668;6.860;2022-08-25T02:04:41;20.10;99.90
59857;DHT22;45733;52.668;6.860;2022-08-25T02:07:08;20.10;99.90
59857;DHT22;45733;52.668;6.860;2022-08-25T02:09:35;20.00;99.90
59857;DHT22;45733;52.668;6.860;2022-08-25T02:12:01;19.90;99.90
59857;DHT22;45733;52.668;6.860;2022-08-25T02:14:27;19.90;99.90
59857;DHT22;45733;52.668;6.860;2022-08-25T02:16:53;19.90;99.90
59857;DHT22;45733;52.668;6.860;2022-08-25T02:19:21;19.90;99.90
59857;DHT22;45733;52.668;6.860;2022-08-25T02:21:48;19.90;99.90
59857;DHT22;45733;52.668;6.860;2022-08-25T02:24:14;19.90;99.90
59857;DHT22;45733;52.668;6.860;2022-08-25T02:26:40;19.90;99.90
59857;DHT22;45733;52.668;6.860;2022-08-25T02:29:07;19.70;99.90
59857;DHT22;45733;52.668;6.860;2022-08-25T02:31:34;19.90;99.90
59857;DHT22;45733;52.668;6.860;2022-08-25T02:34:00;19.70;99.90
59857;DHT22;45733;52.668;6.860;2022-08-25T02:36:27;19.80;99.90
59857;DHT22;45733;52.668;6.860;2022-08-25T02:38:53;19.80;99.90
59857;DHT22;45733;52.668;6.860;2022-08-25T02:41:21;19.80;99.90
59857;DHT22;45733;52.668;6.860;2022-08-25T02:43:49;19.80;99.90
59857;DHT22;45733;52.668;6.860;2022-08-25T02:46:18;19.70;99.90
59857;DHT22;45733;52.668;6.860;2022-08-25T02:48:45;19.80;99.90
59857;DHT22;45733;52.668;6.860;2022-08-25T02:51:11;19.60;99.90
59857;DHT22;45733;52.668;6.860;2022-08-25T02:53:38;19.80;99.90
59857;DHT22;45733;52.668;6.860;2022-08-25T02:56:09;19.80;99.90
59857;DHT22;45733;52.668;6.860;2022-08-25T02:58:36;19.70;99.90
59857;DHT22;45733;52.668;6.860;2022-08-25T03:01:03;19.60;99.90
59857;DHT22;45733;52.668;6.860;2022-08-25T03:03:30;19.60;99.90
59857;DHT22;45733;52.668;6.860;2022-08-25T03:05:56;19.70;99.90
59857;DHT22;45733;52.668;6.860;2022-08-25T03:08:22;19.60;99.90
59857;DHT22;45733;52.668;6.860;2022-08-25T03:10:48;19.60;99.90
59857;DHT22;45733;52.668;6.860;2022-08-25T03:13:14;19.60;99.90
59857;DHT22;45733;52.668;6.860;2022-08-25T03:15:41;19.60;99.90
59857;DHT22;45733;52.668;6.860;2022-08-25T03:18:07;19.60;99.90
59857;DHT22;45733;52.668;6.860;2022-08-25T03:20:33;19.60;99.90
59857;DHT22;45733;52.668;6.860;2022-08-25T03:23:01;19.60;99.90
59857;DHT22;45733;52.668;6.860;2022-08-25T03:25:28;19.50;99.90
59857;DHT22;45733;52.668;6.860;2022-08-25T03:28:13;19.50;99.90
59857;DHT22;45733;52.668;6.860;2022-08-25T03:30:39;19.50;99.90
59857;DHT22;45733;52.668;6.860;2022-08-25T03:33:05;19.50;99.90
59857;DHT22;45733;52.668;6.860;2022-08-25T03:35:31;19.40;99.90
59857;DHT22;45733;52.668;6.860;2022-08-25T03:38:03;19.50;99.90
59857;DHT22;45733;52.668;6.860;2022-08-25T03:40:29;19.30;99.90
59857;DHT22;45733;52.668;6.860;2022-08-25T03:42:54;19.30;99.90
59857;DHT22;45733;52.668;6.860;2022-08-25T03:45:22;19.30;99.90
59857;DHT22;45733;52.668;6.860;2022-08-25T03:47:49;19.30;99.90
59857;DHT22;45733;52.668;6.860;2022-08-25T03:50:17;19.30;99.90
59857;DHT22;45733;52.668;6.860;2022-08-25T03:52:44;19.20;99.90
59857;DHT22;45733;52.668;6.860;2022-08-25T03:55:12;19.20;99.90
59857;DHT22;45733;52.668;6.860;2022-08-25T03:57:39;19.20;99.90
59857;DHT22;45733;52.668;6.860;2022-08-25T04:00:07;19.10;99.90
59857;DHT22;45733;52.668;6.860;2022-08-25T04:02:51;19.20;99.90
59857;DHT22;45733;52.668;6.860;2022-08-25T04:05:17;19.10;99.90
59857;DHT22;45733;52.668;6.860;2022-08-25T04:07:44;19.00;99.90
59857;DHT22;45733;52.668;6.860;2022-08-25T04:10:10;19.20;99.90
59857;DHT22;45733;52.668;6.860;2022-08-25T04:12:37;19.10;99.90
59857;DHT22;45733;52.668;6.860;2022-08-25T04:15:06;19.00;99.90
59857;DHT22;45733;52.668;6.860;2022-08-25T04:17:33;19.00;99.90
59857;DHT22;45733;52.668;6.860;2022-08-25T04:20:01;19.00;99.90
59857;DHT22;45733;52.668;6.860;2022-08-25T04:22:28;19.00;99.90
59857;DHT22;45733;52.668;6.860;2022-08-25T04:24:56;18.90;99.90
59857;DHT22;45733;52.668;6.860;2022-08-25T04:27:22;19.00;99.90
59857;DHT22;45733;52.668;6.860;2022-08-25T04:29:48;18.80;99.90
59857;DHT22;45733;52.668;6.860;2022-08-25T04:32:14;18.90;99.90
59857;DHT22;45733;52.668;6.860;2022-08-25T04:34:39;18.80;99.90
59857;DHT22;45733;52.668;6.860;2022-08-25T04:37:06;18.80;99.90
59857;DHT22;45733;52.668;6.860;2022-08-25T04:39:32;18.80;99.90
59857;DHT22;45733;52.668;6.860;2022-08-25T04:41:59;18.70;99.90
59857;DHT22;45733;52.668;6.860;2022-08-25T04:44:25;18.80;99.90
59857;DHT22;45733;52.668;6.860;2022-08-25T04:46:51;18.80;99.90
59857;DHT22;45733;52.668;6.860;2022-08-25T04:49:17;18.60;99.90
59857;DHT22;45733;52.668;6.860;2022-08-25T04:51:43;18.60;99.90
59857;DHT22;45733;52.668;6.860;2022-08-25T04:54:12;18.70;99.90
59857;DHT22;45733;52.668;6.860;2022-08-25T04:56:39;18.70;99.90
59857;DHT22;45733;52.668;6.860;2022-08-25T04:59:09;18.70;99.90
59857;DHT22;45733;52.668;6.860;2022-08-25T05:01:37;18.70;99.90
59857;DHT22;45733;52.668;6.860;2022-08-25T05:04:05;18.60;99.90
59857;DHT22;45733;52.668;6.860;2022-08-25T05:06:31;18.90;99.90
59857;DHT22;45733;52.668;6.860;2022-08-25T05:08:58;19.50;99.90
59857;DHT22;45733;52.668;6.860;2022-08-25T05:11:24;19.50;99.90
59857;DHT22;45733;52.668;6.860;2022-08-25T05:13:52;19.40;99.90
59857;DHT22;45733;52.668;6.860;2022-08-25T05:16:19;20.00;99.90
59857;DHT22;45733;52.668;6.860;2022-08-25T05:18:45;20.30;99.90
59857;DHT22;45733;52.668;6.860;2022-08-25T05:21:15;20.00;99.90
59857;DHT22;45733;52.668;6.860;2022-08-25T05:23:41;20.40;99.90
59857;DHT22;45733;52.668;6.860;2022-08-25T05:26:13;21.00;99.90
59857;DHT22;45733;52.668;6.860;2022-08-25T05:28:40;21.70;99.90
59857;DHT22;45733;52.668;6.860;2022-08-25T05:31:08;21.80;99.90
59857;DHT22;45733;52.668;6.860;2022-08-25T05:33:37;22.10;99.90
59857;DHT22;45733;52.668;6.860;2022-08-25T05:36:05;21.80;99.90
59857;DHT22;45733;52.668;6.860;2022-08-25T05:38:31;21.90;99.90
59857;DHT22;45733;52.668;6.860;2022-08-25T05:40:58;22.00;99.90
59857;DHT22;45733;52.668;6.860;2022-08-25T05:43:24;22.20;99.90
59857;DHT22;45733;52.668;6.860;2022-08-25T05:45:56;21.90;99.90
59857;DHT22;45733;52.668;6.860;2022-08-25T05:48:23;22.10;99.90
59857;DHT22;45733;52.668;6.860;2022-08-25T05:50:54;22.10;99.90
59857;DHT22;45733;52.668;6.860;2022-08-25T05:53:21;21.90;99.90
59857;DHT22;45733;52.668;6.860;2022-08-25T05:55:48;21.30;99.90
59857;DHT22;45733;52.668;6.860;2022-08-25T05:58:14;21.10;99.90
59857;DHT22;45733;52.668;6.860;2022-08-25T06:00:40;21.00;99.90
59857;DHT22;45733;52.668;6.860;2022-08-25T06:03:06;20.90;99.90
59857;DHT22;45733;52.668;6.860;2022-08-25T06:05:32;21.10;99.90
59857;DHT22;45733;52.668;6.860;2022-08-25T06:07:58;21.20;99.90
59857;DHT22;45733;52.668;6.860;2022-08-25T06:10:25;21.20;99.90
59857;DHT22;45733;52.668;6.860;2022-08-25T06:12:50;21.20;99.90
59857;DHT22;45733;52.668;6.860;2022-08-25T06:15:19;21.40;99.90
59857;DHT22;45733;52.668;6.860;2022-08-25T06:17:46;21.60;99.90
59857;DHT22;45733;52.668;6.860;2022-08-25T06:20:30;21.50;99.90
59857;DHT22;45733;52.668;6.860;2022-08-25T06:22:57;21.60;99.90
59857;DHT22;45733;52.668;6.860;2022-08-25T06:25:24;21.60;99.90
59857;DHT22;45733;52.668;6.860;2022-08-25T06:27:50;22.10;99.90
59857;DHT22;45733;52.668;6.860;2022-08-25T06:30:18;22.00;99.90
59857;DHT22;45733;52.668;6.860;2022-08-25T06:32:45;22.20;99.90
59857;DHT22;45733;52.668;6.860;2022-08-25T06:35:14;22.30;99.90
59857;DHT22;45733;52.668;6.860;2022-08-25T06:37:41;22.00;99.90
59857;DHT22;45733;52.668;6.860;2022-08-25T06:40:08;22.20;99.90
59857;DHT22;45733;52.668;6.860;2022-08-25T06:42:34;22.60;99.90
59857;DHT22;45733;52.668;6.860;2022-08-25T06:45:00;22.40;99.90
59857;DHT22;45733;52.668;6.860;2022-08-25T06:47:26;22.40;99.90
59857;DHT22;45733;52.668;6.860;2022-08-25T06:49:52;22.90;99.90
59857;DHT22;45733;52.668;6.860;2022-08-25T06:52:18;23.00;99.90
59857;DHT22;45733;52.668;6.860;2022-08-25T06:54:44;23.20;99.90
59857;DHT22;45733;52.668;6.860;2022-08-25T06:57:10;22.80;99.90
59857;DHT22;45733;52.668;6.860;2022-08-25T06:59:36;23.50;99.90
59857;DHT22;45733;52.668;6.860;2022-08-25T07:02:04;23.40;99.90
59857;DHT22;45733;52.668;6.860;2022-08-25T07:04:30;23.50;99.90
59857;DHT22;45733;52.668;6.860;2022-08-25T07:06:56;23.20;99.90
59857;DHT22;45733;52.668;6.860;2022-08-25T07:09:22;23.30;99.90
59857;DHT22;45733;52.668;6.860;2022-08-25T07:11:48;23.80;99.90
59857;DHT22;45733;52.668;6.860;2022-08-25T07:14:16;23.90;99.90
59857;DHT22;45733;52.668;6.860;2022-08-25T07:16:42;23.60;99.90
59857;DHT22;45733;52.668;6.860;2022-08-25T07:19:09;24.20;99.90
59857;DHT22;45733;52.668;6.860;2022-08-25T07:21:37;24.10;99.90
59857;DHT22;45733;52.668;6.860;2022-08-25T07:24:09;24.30;99.90
59857;DHT22;45733;52.668;6.860;2022-08-25T07:26:36;24.40;99.90
59857;DHT22;45733;52.668;6.860;2022-08-25T07:29:13;24.40;99.90
59857;DHT22;45733;52.668;6.860;2022-08-25T07:31:39;24.50;99.90
59857;DHT22;45733;52.668;6.860;2022-08-25T07:34:06;24.70;99.90
59857;DHT22;45733;52.668;6.860;2022-08-25T07:36:50;24.60;99.90
59857;DHT22;45733;52.668;6.860;2022-08-25T07:39:16;24.60;99.90
59857;DHT22;45733;52.668;6.860;2022-08-25T07:41:42;24.80;99.90
59857;DHT22;45733;52.668;6.860;2022-08-25T07:44:10;24.90;99.90
59857;DHT22;45733;52.668;6.860;2022-08-25T07:46:36;25.10;99.90
59857;DHT22;45733;52.668;6.860;2022-08-25T07:49:02;25.10;99.90
59857;DHT22;45733;52.668;6.860;2022-08-25T07:51:28;25.10;99.90
59857;DHT22;45733;52.668;6.860;2022-08-25T07:53:54;25.40;99.90
59857;DHT22;45733;52.668;6.860;2022-08-25T07:56:19;25.60;99.90
59857;DHT22;45733;52.668;6.860;2022-08-25T07:58:46;26.00;99.90
59857;DHT22;45733;52.668;6.860;2022-08-25T08:01:21;26.00;99.90
59857;DHT22;45733;52.668;6.860;2022-08-25T08:03:47;26.20;99.90
59857;DHT22;45733;52.668;6.860;2022-08-25T08:06:17;26.50;99.90
59857;DHT22;45733;52.668;6.860;2022-08-25T08:08:45;26.60;99.90
59857;DHT22;45733;52.668;6.860;2022-08-25T08:11:19;26.30;99.90
59857;DHT22;45733;52.668;6.860;2022-08-25T08:13:46;26.10;99.90
59857;DHT22;45733;52.668;6.860;2022-08-25T08:16:14;26.60;99.90
59857;DHT22;45733;52.668;6.860;2022-08-25T08:18:44;27.00;99.90
59857;DHT22;45733;52.668;6.860;2022-08-25T08:23:41;27.10;99.90
59857;DHT22;45733;52.668;6.860;2022-08-25T08:26:07;27.20;99.90
59857;DHT22;45733;52.668;6.860;2022-08-25T08:28:32;27.10;99.90
59857;DHT22;45733;52.668;6.860;2022-08-25T08:30:58;26.70;99.90
59857;DHT22;45733;52.668;6.860;2022-08-25T08:33:24;27.10;99.90
59857;DHT22;45733;52.668;6.860;2022-08-25T08:36:02;27.40;99.90
59857;DHT22;45733;52.668;6.860;2022-08-25T08:38:28;27.20;99.90
59857;DHT22;45733;52.668;6.860;2022-08-25T08:41:06;27.60;99.90
59857;DHT22;45733;52.668;6.860;2022-08-25T08:55:22;26.80;99.90
59857;DHT22;45733;52.668;6.860;2022-08-25T08:57:50;27.40;99.90
59857;DHT22;45733;52.668;6.860;2022-08-25T09:00:17;27.80;99.90
59857;DHT22;45733;52.668;6.860;2022-08-25T09:02:57;27.80;99.90
59857;DHT22;45733;52.668;6.860;2022-08-25T09:05:27;28.20;99.90
59857;DHT22;45733;52.668;6.860;2022-08-25T09:07:56;28.70;99.90
59857;DHT22;45733;52.668;6.860;2022-08-25T09:10:27;28.40;99.90
59857;DHT22;45733;52.668;6.860;2022-08-25T09:13:11;28.80;99.90
59857;DHT22;45733;52.668;6.860;2022-08-25T09:21:49;28.50;99.90
59857;DHT22;45733;52.668;6.860;2022-08-25T09:26:54;28.80;99.90
59857;DHT22;45733;52.668;6.860;2022-08-25T09:29:23;28.80;99.90
59857;DHT22;45733;52.668;6.860;2022-08-25T09:31:57;28.60;99.90
59857;DHT22;45733;52.668;6.860;2022-08-25T09:34:29;29.30;99.90
59857;DHT22;45733;52.668;6.860;2022-08-25T09:36:56;28.90;99.90
59857;DHT22;45733;52.668;6.860;2022-08-25T09:39:22;29.00;99.90
59857;DHT22;45733;52.668;6.860;2022-08-25T09:41:52;29.20;99.90
59857;DHT22;45733;52.668;6.860;2022-08-25T09:44:27;29.60;99.90
59857;DHT22;45733;52.668;6.860;2022-08-25T09:47:12;29.30;99.90
59857;DHT22;45733;52.668;6.860;2022-08-25T09:49:41;29.00;99.90
59857;DHT22;45733;52.668;6.860;2022-08-25T09:55:25;29.10;99.90
59857;DHT22;45733;52.668;6.860;2022-08-25T09:57:53;29.50;99.90
59857;DHT22;45733;52.668;6.860;2022-08-25T10:00:33;29.90;99.80
59857;DHT22;45733;52.668;6.860;2022-08-25T10:03:20;30.00;99.40
59857;DHT22;45733;52.668;6.860;2022-08-25T10:05:57;30.10;99.90
59857;DHT22;45733;52.668;6.860;2022-08-25T10:08:29;29.70;98.30
59857;DHT22;45733;52.668;6.860;2022-08-25T10:10:57;29.60;98.30
59857;DHT22;45733;52.668;6.860;2022-08-25T10:13:36;29.30;98.80
59857;DHT22;45733;52.668;6.860;2022-08-25T10:16:24;29.20;98.10
59857;DHT22;45733;52.668;6.860;2022-08-25T10:21:32;29.60;98.60
59857;DHT22;45733;52.668;6.860;2022-08-25T10:23:58;29.70;98.30
59857;DHT22;45733;52.668;6.860;2022-08-25T10:29:44;30.00;97.20
59857;DHT22;45733;52.668;6.860;2022-08-25T10:32:17;30.20;98.10
59857;DHT22;45733;52.668;6.860;2022-08-25T10:34:54;30.00;96.10
59857;DHT22;45733;52.668;6.860;2022-08-25T10:43:06;30.50;97.30
59857;DHT22;45733;52.668;6.860;2022-08-25T10:45:40;30.60;97.60
59857;DHT22;45733;52.668;6.860;2022-08-25T10:50:54;30.70;95.50
59857;DHT22;45733;52.668;6.860;2022-08-25T10:56:25;30.00;96.50
59857;DHT22;45733;52.668;6.860;2022-08-25T11:01:51;30.10;93.10
59857;DHT22;45733;52.668;6.860;2022-08-25T11:04:34;30.60;93.30
59857;DHT22;45733;52.668;6.860;2022-08-25T11:09:39;30.20;92.70
59857;DHT22;45733;52.668;6.860;2022-08-25T11:15:02;30.80;93.70
59857;DHT22;45733;52.668;6.860;2022-08-25T11:18:08;30.70;92.50
59857;DHT22;45733;52.668;6.860;2022-08-25T11:25:38;30.30;93.70
59857;DHT22;45733;52.668;6.860;2022-08-25T11:30:51;30.50;93.10
59857;DHT22;45733;52.668;6.860;2022-08-25T11:33:19;30.90;93.50
59857;DHT22;45733;52.668;6.860;2022-08-25T11:35:58;31.10;92.90
59857;DHT22;45733;52.668;6.860;2022-08-25T11:48:54;31.10;92.80
59857;DHT22;45733;52.668;6.860;2022-08-25T11:51:44;30.90;92.30
59857;DHT22;45733;52.668;6.860;2022-08-25T11:54:22;31.00;92.20
59857;DHT22;45733;52.668;6.860;2022-08-25T11:57:04;30.80;92.90
59857;DHT22;45733;52.668;6.860;2022-08-25T12:11:00;31.10;92.40
59857;DHT22;45733;52.668;6.860;2022-08-25T12:13:46;31.40;93.00
59857;DHT22;45733;52.668;6.860;2022-08-25T12:29:59;31.80;91.30
59857;DHT22;45733;52.668;6.860;2022-08-25T12:35:12;32.00;90.60
59857;DHT22;45733;52.668;6.860;2022-08-25T12:38:54;31.40;90.10
59857;DHT22;45733;52.668;6.860;2022-08-25T12:41:14;31.90;90.20
59857;DHT22;45733;52.668;6.860;2022-08-25T12:43:43;31.40;87.80
59857;DHT22;45733;52.668;6.860;2022-08-25T12:51:49;31.80;90.70
59857;DHT22;45733;52.668;6.860;2022-08-25T13:08:56;31.70;89.50
59857;DHT22;45733;52.668;6.860;2022-08-25T13:11:40;32.10;91.10
59857;DHT22;45733;52.668;6.860;2022-08-25T13:16:59;32.90;90.80
59857;DHT22;45733;52.668;6.860;2022-08-25T13:19:26;32.50;85.40
59857;DHT22;45733;52.668;6.860;2022-08-25T13:21:53;32.20;86.50
59857;DHT22;45733;52.668;6.860;2022-08-25T13:24:29;31.90;83.40
59857;DHT22;45733;52.668;6.860;2022-08-25T13:27:00;32.00;84.80
59857;DHT22;45733;52.668;6.860;2022-08-25T13:29:30;32.00;85.30
59857;DHT22;45733;52.668;6.860;2022-08-25T13:32:02;32.50;86.70
59857;DHT22;45733;52.668;6.860;2022-08-25T13:34:32;32.40;84.80
59857;DHT22;45733;52.668;6.860;2022-08-25T13:37:17;32.20;86.20
59857;DHT22;45733;52.668;6.860;2022-08-25T13:42:38;31.70;90.00
59857;DHT22;45733;52.668;6.860;2022-08-25T13:45:05;31.20;88.50
59857;DHT22;45733;52.668;6.860;2022-08-25T13:47:35;31.80;90.90
59857;DHT22;45733;52.668;6.860;2022-08-25T13:50:40;32.70;89.80
59857;DHT22;45733;52.668;6.860;2022-08-25T13:53:13;32.90;90.00
59857;DHT22;45733;52.668;6.860;2022-08-25T13:58:27;32.20;89.20
59857;DHT22;45733;52.668;6.860;2022-08-25T14:01:26;32.00;90.40
59857;DHT22;45733;52.668;6.860;2022-08-25T14:03:54;31.80;90.50
59857;DHT22;45733;52.668;6.860;2022-08-25T14:06:26;31.70;90.00
59857;DHT22;45733;52.668;6.860;2022-08-25T14:11:28;31.20;90.20
59857;DHT22;45733;52.668;6.860;2022-08-25T14:14:08;31.10;88.50
59857;DHT22;45733;52.668;6.860;2022-08-25T14:16:56;31.70;90.30
59857;DHT22;45733;52.668;6.860;2022-08-25T14:19:23;31.70;90.30
59857;DHT22;45733;52.668;6.860;2022-08-25T14:21:50;31.40;90.30
59857;DHT22;45733;52.668;6.860;2022-08-25T14:24:20;31.80;90.80
59857;DHT22;45733;52.668;6.860;2022-08-25T14:26:47;32.40;90.60
59857;DHT22;45733;52.668;6.860;2022-08-25T14:29:14;32.30;90.40
59857;DHT22;45733;52.668;6.860;2022-08-25T14:31:42;32.20;90.30
59857;DHT22;45733;52.668;6.860;2022-08-25T14:34:13;32.10;90.60
59857;DHT22;45733;52.668;6.860;2022-08-25T14:36:40;32.00;89.10
59857;DHT22;45733;52.668;6.860;2022-08-25T14:39:07;31.70;90.60
59857;DHT22;45733;52.668;6.860;2022-08-25T14:41:34;31.90;90.20
59857;DHT22;45733;52.668;6.860;2022-08-25T14:44:02;31.80;90.30
59857;DHT22;45733;52.668;6.860;2022-08-25T14:46:31;31.80;90.50
59857;DHT22;45733;52.668;6.860;2022-08-25T14:49:00;31.90;90.60
59857;DHT22;45733;52.668;6.860;2022-08-25T14:51:28;31.90;90.80
59857;DHT22;45733;52.668;6.860;2022-08-25T14:53:58;31.60;90.70
59857;DHT22;45733;52.668;6.860;2022-08-25T14:56:24;31.80;91.50
59857;DHT22;45733;52.668;6.860;2022-08-25T14:58:50;31.50;91.60
59857;DHT22;45733;52.668;6.860;2022-08-25T15:01:17;31.50;91.70
59857;DHT22;45733;52.668;6.860;2022-08-25T15:03:46;31.30;91.10
59857;DHT22;45733;52.668;6.860;2022-08-25T15:06:14;31.40;90.60
59857;DHT22;45733;52.668;6.860;2022-08-25T15:08:40;31.30;91.30
59857;DHT22;45733;52.668;6.860;2022-08-25T15:11:28;31.30;90.50
59857;DHT22;45733;52.668;6.860;2022-08-25T15:13:54;31.00;91.10
59857;DHT22;45733;52.668;6.860;2022-08-25T15:16:27;31.10;91.00
59857;DHT22;45733;52.668;6.860;2022-08-25T15:18:53;30.70;91.70
59857;DHT22;45733;52.668;6.860;2022-08-25T15:21:20;30.70;92.20
59857;DHT22;45733;52.668;6.860;2022-08-25T15:23:46;30.50;92.40
59857;DHT22;45733;52.668;6.860;2022-08-25T15:26:13;30.90;91.60
59857;DHT22;45733;52.668;6.860;2022-08-25T15:28:46;31.00;91.30
59857;DHT22;45733;52.668;6.860;2022-08-25T15:31:14;30.90;91.30
59857;DHT22;45733;52.668;6.860;2022-08-25T15:33:41;30.60;90.60
59857;DHT22;45733;52.668;6.860;2022-08-25T15:36:08;30.80;91.80
59857;DHT22;45733;52.668;6.860;2022-08-25T15:38:37;30.80;91.90
59857;DHT22;45733;52.668;6.860;2022-08-25T15:41:04;31.00;92.20
59857;DHT22;45733;52.668;6.860;2022-08-25T15:43:30;30.80;90.70
59857;DHT22;45733;52.668;6.860;2022-08-25T15:45:57;30.90;92.10
59857;DHT22;45733;52.668;6.860;2022-08-25T15:48:23;30.90;91.80
59857;DHT22;45733;52.668;6.860;2022-08-25T15:50:53;30.80;91.40
59857;DHT22;45733;52.668;6.860;2022-08-25T15:53:26;30.90;91.00
59857;DHT22;45733;52.668;6.860;2022-08-25T15:55:53;30.80;92.10
59857;DHT22;45733;52.668;6.860;2022-08-25T15:58:19;30.90;91.70
59857;DHT22;45733;52.668;6.860;2022-08-25T16:00:45;30.80;91.70
59857;DHT22;45733;52.668;6.860;2022-08-25T16:03:11;30.70;92.10
59857;DHT22;45733;52.668;6.860;2022-08-25T16:05:39;30.80;92.10
59857;DHT22;45733;52.668;6.860;2022-08-25T16:08:06;30.90;91.30
59857;DHT22;45733;52.668;6.860;2022-08-25T16:10:37;31.00;92.10
59857;DHT22;45733;52.668;6.860;2022-08-25T16:13:03;30.70;92.40
59857;DHT22;45733;52.668;6.860;2022-08-25T16:15:29;30.70;91.70
59857;DHT22;45733;52.668;6.860;2022-08-25T16:17:57;30.50;92.30
59857;DHT22;45733;52.668;6.860;2022-08-25T16:20:23;30.40;91.90
59857;DHT22;45733;52.668;6.860;2022-08-25T16:22:49;30.40;92.50
59857;DHT22;45733;52.668;6.860;2022-08-25T16:25:15;30.30;92.10
59857;DHT22;45733;52.668;6.860;2022-08-25T16:27:40;30.30;92.00
59857;DHT22;45733;52.668;6.860;2022-08-25T16:30:09;30.30;93.10
59857;DHT22;45733;52.668;6.860;2022-08-25T16:32:35;30.30;92.10
59857;DHT22;45733;52.668;6.860;2022-08-25T16:35:01;30.20;92.50
59857;DHT22;45733;52.668;6.860;2022-08-25T16:37:26;30.10;92.30
59857;DHT22;45733;52.668;6.860;2022-08-25T16:39:53;30.00;92.70
59857;DHT22;45733;52.668;6.860;2022-08-25T16:42:19;30.10;92.90
59857;DHT22;45733;52.668;6.860;2022-08-25T16:44:45;30.20;92.40
59857;DHT22;45733;52.668;6.860;2022-08-25T16:47:11;30.10;91.40
59857;DHT22;45733;52.668;6.860;2022-08-25T16:49:39;30.00;92.00
59857;DHT22;45733;52.668;6.860;2022-08-25T16:52:05;29.90;92.20
59857;DHT22;45733;52.668;6.860;2022-08-25T16:54:52;29.80;92.10
59857;DHT22;45733;52.668;6.860;2022-08-25T16:57:38;29.80;92.60
59857;DHT22;45733;52.668;6.860;2022-08-25T17:00:07;29.70;93.40
59857;DHT22;45733;52.668;6.860;2022-08-25T17:02:35;29.60;92.70
59857;DHT22;45733;52.668;6.860;2022-08-25T17:05:02;29.50;93.20
59857;DHT22;45733;52.668;6.860;2022-08-25T17:07:28;29.50;93.30
59857;DHT22;45733;52.668;6.860;2022-08-25T17:09:53;29.40;93.10
59857;DHT22;45733;52.668;6.860;2022-08-25T17:12:22;29.60;92.30
59857;DHT22;45733;52.668;6.860;2022-08-25T17:14:48;29.50;93.00
59857;DHT22;45733;52.668;6.860;2022-08-25T17:17:14;29.40;93.40
59857;DHT22;45733;52.668;6.860;2022-08-25T17:19:39;29.30;92.70
59857;DHT22;45733;52.668;6.860;2022-08-25T17:22:06;29.20;93.00
59857;DHT22;45733;52.668;6.860;2022-08-25T17:24:32;29.30;92.80
59857;DHT22;45733;52.668;6.860;2022-08-25T17:26:59;29.20;93.00
59857;DHT22;45733;52.668;6.860;2022-08-25T17:29:25;29.20;93.90
59857;DHT22;45733;52.668;6.860;2022-08-25T17:31:51;29.20;92.90
59857;DHT22;45733;52.668;6.860;2022-08-25T17:34:17;29.00;94.30
59857;DHT22;45733;52.668;6.860;2022-08-25T17:36:44;28.80;95.80
59857;DHT22;45733;52.668;6.860;2022-08-25T17:39:12;28.60;96.00
59857;DHT22;45733;52.668;6.860;2022-08-25T17:41:38;28.40;96.50
59857;DHT22;45733;52.668;6.860;2022-08-25T17:44:04;28.40;96.90
59857;DHT22;45733;52.668;6.860;2022-08-25T17:46:30;28.20;97.50
59857;DHT22;45733;52.668;6.860;2022-08-25T17:48:56;28.00;98.00
59857;DHT22;45733;52.668;6.860;2022-08-25T17:51:22;28.00;98.20
59857;DHT22;45733;52.668;6.860;2022-08-25T17:53:48;28.10;98.00
59857;DHT22;45733;52.668;6.860;2022-08-25T17:56:18;28.10;98.10